createdAt,value
2023-03-20T00:01:31.508Z,100664.44
2023-03-20T00:04:01.351Z,100668.84
2023-03-20T00:06:31.186Z,100665.25
2023-03-20T00:09:07.531Z,100665.34
2023-03-20T00:11:42.751Z,100661.81
2023-03-20T00:14:15.828Z,100663.84
2023-03-20T00:16:47.377Z,100661.16
2023-03-20T00:19:24.665Z,100670.19
2023-03-20T00:21:56.808Z,100672.47
2023-03-20T00:24:26.928Z,100665.19
2023-03-20T00:26:57.407Z,100665.53
2023-03-20T00:29:32.952Z,100664.25
2023-03-20T00:32:02.937Z,100655.56
2023-03-20T00:34:33.107Z,100662.81
2023-03-20T00:37:02.650Z,100663.81
2023-03-20T00:39:33.177Z,100663.69
2023-03-20T00:42:08.701Z,100662.69
2023-03-20T00:44:45.373Z,100657.94
2023-03-20T00:47:25.915Z,100652.72
2023-03-20T00:49:57.385Z,100661.03
2023-03-20T00:52:27.650Z,100652.69
2023-03-20T00:54:57.229Z,100657.78
2023-03-20T00:57:37.018Z,100656.19
2023-03-20T01:00:29.059Z,100650.63
2023-03-20T01:03:00.482Z,100653.22
2023-03-20T01:05:30.707Z,100660.09
2023-03-20T01:08:00.879Z,100648.78
2023-03-20T01:10:34.282Z,100659.06
2023-03-20T01:13:04.475Z,100659.75
2023-03-20T01:15:36.054Z,100644.41
2023-03-20T01:18:05.987Z,100641.63
2023-03-20T01:20:35.575Z,100650.31
2023-03-20T01:23:05.221Z,100644.06
2023-03-20T01:25:35.065Z,100639.00
2023-03-20T01:28:06.120Z,100632.91
2023-03-20T01:30:35.712Z,100627.34
2023-03-20T01:33:15.394Z,100628.00
2023-03-20T01:35:45.784Z,100626.72
2023-03-20T01:38:20.664Z,100621.47
2023-03-20T01:41:09.851Z,100615.75
2023-03-20T01:43:39.455Z,100614.59
2023-03-20T01:46:20.360Z,100609.97
2023-03-20T01:48:53.557Z,100605.22
2023-03-20T01:51:29.072Z,100601.28
2023-03-20T01:54:09.902Z,100602.25
2023-03-20T01:56:51.240Z,100603.44
2023-03-20T01:59:32.617Z,100607.72
2023-03-20T02:02:02.568Z,100595.19
2023-03-20T02:04:36.586Z,100593.41
2023-03-20T02:07:09.202Z,100593.22
2023-03-20T02:09:39.177Z,100592.88
2023-03-20T02:12:08.894Z,100589.63
2023-03-20T02:14:39.445Z,100587.31
2023-03-20T02:17:11.972Z,100585.28
2023-03-20T02:19:59.675Z,100574.41
2023-03-20T02:22:56.872Z,100578.81
2023-03-20T02:25:44.674Z,100563.69
2023-03-20T02:29:10.074Z,100558.19
2023-03-20T02:32:25.732Z,100550.59
2023-03-20T02:35:27.391Z,100544.28
2023-03-20T02:37:59.976Z,100532.34
2023-03-20T02:40:39.845Z,100539.19
2023-03-20T02:43:26.426Z,100539.13
2023-03-20T02:46:34.398Z,100538.06
2023-03-20T02:49:21.151Z,100532.97
2023-03-20T02:52:16.995Z,100535.75
2023-03-20T02:55:04.835Z,100537.50
2023-03-20T02:58:14.674Z,100526.78
2023-03-20T03:01:11.335Z,100522.50
2023-03-20T03:03:49.600Z,100521.63
2023-03-20T03:06:36.666Z,100499.56
2023-03-20T03:09:17.666Z,100474.94
2023-03-20T03:11:59.356Z,100476.00
2023-03-20T03:14:54.478Z,100472.75
2023-03-20T03:17:28.117Z,100462.44
2023-03-20T03:20:00.770Z,100461.16
2023-03-20T03:22:30.604Z,100456.75
2023-03-20T03:25:00.209Z,100454.31
2023-03-20T03:27:50.807Z,100444.13
2023-03-20T03:30:27.640Z,100450.28
2023-03-20T03:33:23.955Z,100449.28
2023-03-20T03:35:58.166Z,100453.06
2023-03-20T03:38:27.826Z,100452.78
2023-03-20T03:41:17.583Z,100458.91
2023-03-20T03:44:02.983Z,100446.63
2023-03-20T03:46:55.384Z,100430.88
2023-03-20T03:49:46.631Z,100429.88
2023-03-20T03:52:24.171Z,100415.47
2023-03-20T03:54:57.499Z,100414.53
2023-03-20T03:57:48.967Z,100401.56
2023-03-20T04:00:24.155Z,100413.38
2023-03-20T04:02:57.176Z,100412.03
2023-03-20T04:05:33.064Z,100409.97
2023-03-20T04:08:04.828Z,100398.00
2023-03-20T04:10:34.382Z,100387.94
2023-03-20T04:13:04.032Z,100368.81
2023-03-20T04:15:33.794Z,100372.94
2023-03-20T04:18:03.511Z,100371.59
2023-03-20T04:20:34.031Z,100364.03
2023-03-20T04:23:03.628Z,100360.34
2023-03-20T04:25:33.252Z,100356.63
2023-03-20T04:28:02.836Z,100354.06
2023-03-20T04:30:32.800Z,100351.41
2023-03-20T04:33:02.466Z,100357.31
2023-03-20T04:35:32.052Z,100358.47
2023-03-20T04:38:01.576Z,100355.88
2023-03-20T04:40:33.091Z,100348.72
2023-03-20T04:43:02.641Z,100353.13
2023-03-20T04:45:32.414Z,100340.84
2023-03-20T04:48:02.562Z,100362.53
2023-03-20T04:50:32.387Z,100361.72
2023-03-20T04:53:01.982Z,100348.16
2023-03-20T04:55:31.541Z,100344.31
2023-03-20T04:58:01.174Z,100344.44
2023-03-20T05:00:30.783Z,100338.75
2023-03-20T05:03:00.389Z,100338.38
2023-03-20T05:05:30.966Z,100346.53
2023-03-20T05:08:00.532Z,100349.88
2023-03-20T05:10:30.113Z,100346.63
2023-03-20T05:12:59.707Z,100352.31
2023-03-20T05:15:29.459Z,100348.72
2023-03-20T05:17:59.162Z,100350.13
2023-03-20T05:20:29.118Z,100349.06
2023-03-20T05:22:58.845Z,100344.19
2023-03-20T05:25:28.421Z,100343.38
2023-03-20T05:27:58.060Z,100343.84
2023-03-20T05:30:27.837Z,100339.91
2023-03-20T05:32:58.409Z,100330.63
2023-03-20T05:35:27.999Z,100322.13
2023-03-20T05:37:57.618Z,100312.25
2023-03-20T05:40:27.609Z,100305.66
2023-03-20T05:42:57.303Z,100303.44
2023-03-20T05:45:26.864Z,100301.97
2023-03-20T05:47:56.440Z,100292.31
2023-03-20T05:50:25.994Z,100290.84
2023-03-20T05:52:55.686Z,100291.41
2023-03-20T05:55:25.433Z,100294.09
2023-03-20T05:57:55.007Z,100293.28
2023-03-20T06:00:25.223Z,100285.25
2023-03-20T06:02:54.957Z,100284.41
2023-03-20T06:05:24.587Z,100282.13
2023-03-20T06:07:54.196Z,100267.25
